createdAt,value
2017-11-14T00:00:48.533Z,811.84
2017-11-14T00:01:49.136Z,811.83
2017-11-14T00:02:49.734Z,811.89
2017-11-14T00:03:50.334Z,811.91
2017-11-14T00:04:50.934Z,811.95
2017-11-14T00:05:51.534Z,811.91
2017-11-14T00:06:52.132Z,811.93
2017-11-14T00:07:52.733Z,811.96
2017-11-14T00:08:53.334Z,811.95
2017-11-14T00:09:53.966Z,811.93
2017-11-14T00:10:54.565Z,811.93
2017-11-14T00:11:55.168Z,811.95
2017-11-14T00:12:55.774Z,811.96
2017-11-14T00:13:56.391Z,811.99
2017-11-14T00:14:56.973Z,811.99
2017-11-14T00:15:57.578Z,811.96
2017-11-14T00:16:58.175Z,811.97
2017-11-14T00:17:58.783Z,811.92
2017-11-14T00:18:59.405Z,811.92
2017-11-14T00:20:00.008Z,811.92
2017-11-14T00:21:00.617Z,811.90
2017-11-14T00:22:01.219Z,811.89
2017-11-14T00:23:01.817Z,811.86
2017-11-14T00:24:02.414Z,811.88
2017-11-14T00:25:03.016Z,811.88
2017-11-14T00:26:03.616Z,811.86
2017-11-14T00:27:04.218Z,811.86
2017-11-14T00:28:04.813Z,811.88
2017-11-14T00:29:05.419Z,811.88
2017-11-14T00:30:06.055Z,811.87
2017-11-14T00:31:06.653Z,811.90
2017-11-14T00:32:07.254Z,811.90
2017-11-14T00:33:07.856Z,811.88
2017-11-14T00:34:08.457Z,811.87
2017-11-14T00:35:09.055Z,811.86
2017-11-14T00:36:09.658Z,811.85
2017-11-14T00:37:10.261Z,811.84
2017-11-14T00:38:10.856Z,811.86
2017-11-14T00:39:11.455Z,811.87
2017-11-14T00:40:12.056Z,811.85
2017-11-14T00:41:12.685Z,811.87
2017-11-14T00:42:13.323Z,811.91
2017-11-14T00:43:13.922Z,811.90
2017-11-14T00:44:14.522Z,811.89
2017-11-14T00:45:15.126Z,811.88
2017-11-14T00:46:15.729Z,811.88
2017-11-14T00:47:16.332Z,811.89
2017-11-14T00:48:16.931Z,811.93
2017-11-14T00:49:17.529Z,811.92
2017-11-14T00:50:18.130Z,811.90
2017-11-14T00:51:18.729Z,811.94
2017-11-14T00:52:19.330Z,811.92
2017-11-14T00:53:19.930Z,811.95
2017-11-14T00:54:20.533Z,811.96
2017-11-14T00:55:21.130Z,811.96
2017-11-14T00:56:21.731Z,811.96
2017-11-14T00:57:22.332Z,811.94
2017-11-14T00:58:22.933Z,811.98
2017-11-14T00:59:23.530Z,812.01
2017-11-14T01:00:24.164Z,812.05
2017-11-14T01:01:24.765Z,812.00
2017-11-14T02:03:05.605Z,812.27
2017-11-14T02:04:06.203Z,812.30
2017-11-14T02:05:06.808Z,812.29
2017-11-14T02:06:07.404Z,812.31
2017-11-14T02:07:08.007Z,812.31
2017-11-14T02:08:08.609Z,812.29
2017-11-14T02:09:09.210Z,812.27
2017-11-14T02:10:09.816Z,812.31
2017-11-14T02:11:10.415Z,812.31
2017-11-14T02:12:11.013Z,812.25
2017-11-14T02:13:11.614Z,812.27
2017-11-14T02:14:12.214Z,812.30
2017-11-14T02:15:12.818Z,812.25
2017-11-14T02:16:13.416Z,812.29
2017-11-14T02:17:14.019Z,812.32
2017-11-14T02:18:14.653Z,812.35
2017-11-14T02:19:15.253Z,812.34
2017-11-14T02:20:15.855Z,812.34
2017-11-14T02:21:16.459Z,812.23
2017-11-14T02:22:17.058Z,812.26
2017-11-14T02:23:17.655Z,812.21
2017-11-14T02:24:18.262Z,812.25
2017-11-14T02:25:18.857Z,812.27
2017-11-14T02:26:19.457Z,812.28
2017-11-14T02:27:20.059Z,812.31
2017-11-14T02:28:20.689Z,812.28
2017-11-14T02:29:21.320Z,812.30
2017-11-14T02:30:21.919Z,812.26
2017-11-14T02:31:22.519Z,812.26
2017-11-14T02:32:23.118Z,812.18
2017-11-14T02:33:23.724Z,812.23
2017-11-14T02:34:24.325Z,812.20
2017-11-14T02:35:24.936Z,812.26
2017-11-14T02:36:25.526Z,812.23
2017-11-14T02:37:26.129Z,812.22
2017-11-14T02:38:26.732Z,812.21
2017-11-14T02:39:27.334Z,812.20
2017-11-14T02:40:27.931Z,812.22
2017-11-14T02:41:28.537Z,812.22
2017-11-14T02:42:29.136Z,812.23
2017-11-14T02:43:29.733Z,812.22
2017-11-14T02:44:30.335Z,812.23
2017-11-14T02:45:30.935Z,812.23
2017-11-14T02:46:31.536Z,812.22
2017-11-14T02:47:32.142Z,812.25
2017-11-14T02:48:32.740Z,812.22
2017-11-14T02:49:33.342Z,812.25
2017-11-14T02:50:33.944Z,812.28
2017-11-14T02:51:34.548Z,812.29
2017-11-14T02:52:35.149Z,812.27
2017-11-14T02:53:35.754Z,812.26
2017-11-14T02:54:36.352Z,812.23
2017-11-14T02:55:36.948Z,812.23
2017-11-14T02:56:37.581Z,812.21
2017-11-14T02:57:38.189Z,812.24
2017-11-14T02:58:38.779Z,812.25
2017-11-14T02:59:39.410Z,812.22
2017-11-14T03:00:40.009Z,812.24
2017-11-14T03:01:40.608Z,812.25
2017-11-14T03:02:41.212Z,812.20
2017-11-14T03:03:41.846Z,812.17
2017-11-14T03:04:42.441Z,812.16
2017-11-14T03:05:43.040Z,812.21
2017-11-14T03:06:43.650Z,812.22
2017-11-14T03:07:44.276Z,812.19
2017-11-14T03:08:44.883Z,812.18
2017-11-14T03:09:45.489Z,812.23
2017-11-14T03:10:46.091Z,812.23
2017-11-14T03:11:46.690Z,812.21
2017-11-14T03:12:47.328Z,812.22
2017-11-14T03:13:47.924Z,812.23
2017-11-14T03:14:48.539Z,812.23
2017-11-14T03:15:49.132Z,812.25
2017-11-14T03:16:49.732Z,812.27
2017-11-14T03:17:50.334Z,812.33
2017-11-14T03:18:50.931Z,812.30
2017-11-14T03:19:51.560Z,812.29
2017-11-14T03:20:52.134Z,812.32
2017-11-14T03:21:52.734Z,812.36
2017-11-14T03:22:53.332Z,812.34
2017-11-14T03:23:53.932Z,812.38
2017-11-14T03:24:54.536Z,812.37
2017-11-14T03:25:55.135Z,812.39
2017-11-14T03:26:55.737Z,812.35
2017-11-14T03:27:56.336Z,812.40
2017-11-14T03:28:56.935Z,812.42
2017-11-14T03:29:57.535Z,812.41
2017-11-14T03:30:58.139Z,812.37
2017-11-14T03:31:58.743Z,812.42
2017-11-14T03:32:59.377Z,812.41
2017-11-14T03:33:59.974Z,812.39
2017-11-14T03:35:00.572Z,812.38
2017-11-14T03:36:01.178Z,812.46
2017-11-14T03:37:01.781Z,812.48
2017-11-14T03:38:02.381Z,812.51
2017-11-14T03:39:02.984Z,812.49
2017-11-14T03:40:03.613Z,812.52
2017-11-14T03:41:04.250Z,812.49
2017-11-14T03:42:04.853Z,812.57
2017-11-14T03:43:05.449Z,812.56
2017-11-14T03:44:06.048Z,812.54
2017-11-14T03:45:06.649Z,812.57
2017-11-14T03:46:07.248Z,812.64
2017-11-14T03:47:07.846Z,812.63
2017-11-14T03:48:08.462Z,812.69
2017-11-14T03:49:09.076Z,812.68
2017-11-14T03:50:09.676Z,812.72
2017-11-14T03:51:10.307Z,812.70
2017-11-14T03:52:10.913Z,812.71
2017-11-14T03:53:11.508Z,812.77
2017-11-14T03:54:12.108Z,812.75
2017-11-14T03:55:12.715Z,812.76
2017-11-14T03:56:13.322Z,812.77
2017-11-14T03:57:13.953Z,812.81
2017-11-14T03:58:14.551Z,812.83
2017-11-14T03:59:15.151Z,812.82
2017-11-14T04:00:15.751Z,812.78
2017-11-14T04:01:16.351Z,812.82
2017-11-14T04:02:16.960Z,812.82
2017-11-14T04:03:17.550Z,812.78
2017-11-14T04:04:18.148Z,812.81
2017-11-14T04:05:18.777Z,812.83
2017-11-14T04:06:19.381Z,812.82
2017-11-14T04:07:19.981Z,812.84
2017-11-14T04:08:20.582Z,812.83
2017-11-14T04:09:21.188Z,812.81
2017-11-14T04:10:21.786Z,812.89
2017-11-14T04:11:22.384Z,812.87
2017-11-14T04:12:22.985Z,812.85
2017-11-14T04:13:23.588Z,812.85
2017-11-14T04:14:24.208Z,812.83
2017-11-14T04:15:24.785Z,812.85
2017-11-14T04:16:25.416Z,812.88
2017-11-14T04:17:26.013Z,812.91
2017-11-14T04:18:26.612Z,812.92
2017-11-14T04:19:27.248Z,812.85
2017-11-14T04:20:27.844Z,812.83
2017-11-14T04:21:28.444Z,812.81
2017-11-14T04:22:29.044Z,812.84
2017-11-14T04:23:29.645Z,812.88
2017-11-14T04:24:30.286Z,812.93
2017-11-14T04:25:30.879Z,812.97
2017-11-14T04:26:31.480Z,812.96
2017-11-14T04:27:32.085Z,812.94
2017-11-14T04:28:32.685Z,812.94
2017-11-14T04:29:33.313Z,813.01
2017-11-14T04:30:33.913Z,813.05
2017-11-14T04:31:34.523Z,813.02
2017-11-14T04:32:35.116Z,813.05
2017-11-14T04:33:35.720Z,813.07
2017-11-14T04:34:36.324Z,813.05
2017-11-14T04:35:36.919Z,813.06
2017-11-14T04:36:37.548Z,813.04
2017-11-14T04:37:38.151Z,813.04
2017-11-14T04:38:38.757Z,813.10
2017-11-14T04:39:39.353Z,813.12
2017-11-14T04:40:39.953Z,813.11
2017-11-14T04:41:40.553Z,813.09
2017-11-14T04:42:41.152Z,813.07
2017-11-14T04:43:41.753Z,813.06
2017-11-14T04:44:42.352Z,813.04
2017-11-14T04:45:42.959Z,813.02
2017-11-14T04:46:43.558Z,813.04
2017-11-14T04:47:44.192Z,813.06
2017-11-14T04:48:44.789Z,813.04
2017-11-14T04:49:45.397Z,813.01
2017-11-14T04:50:45.992Z,812.99
2017-11-14T04:51:46.627Z,813.02
2017-11-14T04:52:47.260Z,812.99
2017-11-14T04:53:47.865Z,813.01
2017-11-14T04:54:48.495Z,812.99
2017-11-14T04:55:49.094Z,813.01
2017-11-14T04:56:49.731Z,813.05
2017-11-14T04:57:50.365Z,813.04
2017-11-14T04:58:50.965Z,813.05
2017-11-14T04:59:51.563Z,813.02
2017-11-14T05:00:52.162Z,813.06
2017-11-14T05:01:52.762Z,813.05
2017-11-14T05:02:53.361Z,813.05
2017-11-14T05:03:53.965Z,813.06
2017-11-14T05:04:54.563Z,813.06
2017-11-14T05:05:55.168Z,813.07
2017-11-14T05:06:55.796Z,813.08
2017-11-14T05:07:56.398Z,813.06
2017-11-14T05:08:57.004Z,813.05
2017-11-14T05:09:57.604Z,813.07
2017-11-14T05:10:58.201Z,813.03
2017-11-14T05:11:58.802Z,813.03
2017-11-14T05:12:59.403Z,813.07
2017-11-14T05:14:00.001Z,813.05
2017-11-14T05:15:00.605Z,813.05
2017-11-14T05:16:01.206Z,813.04
2017-11-14T05:17:01.813Z,813.06
2017-11-14T05:18:02.440Z,813.05
2017-11-14T05:19:03.039Z,813.07
2017-11-14T05:20:03.645Z,813.07
2017-11-14T05:21:04.273Z,813.04
2017-11-14T05:22:04.871Z,813.05
2017-11-14T05:23:05.477Z,813.07
2017-11-14T05:24:06.102Z,813.13
2017-11-14T05:25:06.703Z,813.13
2017-11-14T05:26:07.301Z,813.07
2017-11-14T05:27:07.900Z,813.10
2017-11-14T05:28:08.500Z,813.09
2017-11-14T05:29:09.104Z,813.15
2017-11-14T05:30:09.710Z,813.14
2017-11-14T05:31:10.304Z,813.15
2017-11-14T05:32:10.910Z,813.12
2017-11-14T05:33:11.541Z,813.11
2017-11-14T05:34:12.141Z,813.12
2017-11-14T05:35:12.740Z,813.16
2017-11-14T05:36:13.342Z,813.13
2017-11-14T05:37:13.943Z,813.17
2017-11-14T05:38:14.546Z,813.18
2017-11-14T05:39:15.144Z,813.21
2017-11-14T05:40:15.743Z,813.21
2017-11-14T05:41:16.351Z,813.17
2017-11-14T05:42:16.968Z,813.21
2017-11-14T05:43:17.606Z,813.24
2017-11-14T05:44:18.209Z,813.25
2017-11-14T05:45:18.802Z,813.25
2017-11-14T05:46:19.400Z,813.30
2017-11-14T05:47:20.002Z,813.32
2017-11-14T05:48:20.601Z,813.31
2017-11-14T05:49:21.202Z,813.29
2017-11-14T05:50:21.809Z,813.33
2017-11-14T05:51:22.404Z,813.31
2017-11-14T05:52:23.007Z,813.31
2017-11-14T05:53:23.605Z,813.32
2017-11-14T05:54:24.203Z,813.30
2017-11-14T05:55:24.831Z,813.34
2017-11-14T05:56:25.432Z,813.31
2017-11-14T05:57:26.030Z,813.34
2017-11-14T05:58:26.632Z,813.38
2017-11-14T05:59:27.232Z,813.34
2017-11-14T06:00:27.833Z,813.40
2017-11-14T06:01:28.437Z,813.39
2017-11-14T06:02:29.041Z,813.40
2017-11-14T06:03:29.637Z,813.39
2017-11-14T06:04:30.236Z,813.41
2017-11-14T06:05:30.833Z,813.38
2017-11-14T06:06:31.434Z,813.40
2017-11-14T06:07:32.061Z,813.45
2017-11-14T06:08:32.660Z,813.43
2017-11-14T06:09:33.266Z,813.47
2017-11-14T06:10:33.863Z,813.48
2017-11-14T06:11:34.462Z,813.45
2017-11-14T06:12:35.060Z,813.44
2017-11-14T06:13:35.658Z,813.40
2017-11-14T06:14:36.257Z,813.40
2017-11-14T06:15:36.886Z,813.40
2017-11-14T06:16:37.527Z,813.45
2017-11-14T06:17:38.156Z,813.43
2017-11-14T06:18:38.758Z,813.44
2017-11-14T06:19:39.357Z,813.46
2017-11-14T06:20:39.958Z,813.46
2017-11-14T06:21:40.558Z,813.50
2017-11-14T06:22:41.185Z,813.51
2017-11-14T06:23:41.793Z,813.51
2017-11-14T06:24:42.389Z,813.50
2017-11-14T06:25:43.007Z,813.53
2017-11-14T06:26:43.588Z,813.55
2017-11-14T06:27:44.190Z,813.56
2017-11-14T06:28:44.793Z,813.50
2017-11-14T06:29:45.392Z,813.52
2017-11-14T06:30:46.049Z,813.50
2017-11-14T06:31:46.666Z,813.53
2017-11-14T06:32:47.301Z,813.56
2017-11-14T06:33:47.906Z,813.58
2017-11-14T06:34:48.505Z,813.61
2017-11-14T06:35:49.110Z,813.62
2017-11-14T06:36:49.708Z,813.59
2017-11-14T06:37:50.312Z,813.65
2017-11-14T06:38:50.912Z,813.69
2017-11-14T06:39:51.522Z,813.67
2017-11-14T06:40:52.113Z,813.68
2017-11-14T06:41:52.714Z,813.72
2017-11-14T06:42:53.314Z,813.70
2017-11-14T06:43:53.921Z,813.70
2017-11-14T06:44:54.551Z,813.73
2017-11-14T06:45:55.155Z,813.76
2017-11-14T06:46:55.755Z,813.74
2017-11-14T06:47:56.364Z,813.68
2017-11-14T06:48:56.961Z,813.68
2017-11-14T06:49:57.561Z,813.72
2017-11-14T06:50:58.163Z,813.70
2017-11-14T06:51:58.794Z,813.72
2017-11-14T06:52:59.409Z,813.75
2017-11-14T06:54:00.029Z,813.79
2017-11-14T06:55:00.633Z,813.80
2017-11-14T06:56:01.231Z,813.84
2017-11-14T06:57:01.860Z,813.84
2017-11-14T06:58:02.461Z,813.81
2017-11-14T06:59:03.061Z,813.77
2017-11-14T07:00:03.665Z,813.82
2017-11-14T07:01:04.268Z,813.83
2017-11-14T07:02:04.867Z,813.87
2017-11-14T07:03:05.471Z,813.85
2017-11-14T07:04:06.070Z,813.84
2017-11-14T07:05:06.670Z,813.85
2017-11-14T07:06:07.278Z,813.80
2017-11-14T07:07:07.876Z,813.77
2017-11-14T07:08:08.478Z,813.77
2017-11-14T07:09:09.081Z,813.80
2017-11-14T07:10:09.683Z,813.79
2017-11-14T07:11:10.289Z,813.83
2017-11-14T07:12:10.888Z,813.89
2017-11-14T07:13:11.489Z,813.88
2017-11-14T07:14:12.094Z,813.92
2017-11-14T07:15:12.699Z,813.92
2017-11-14T07:16:13.306Z,813.94
2017-11-14T07:17:13.904Z,813.93
2017-11-14T07:18:14.510Z,813.92
2017-11-14T07:19:15.112Z,813.92
2017-11-14T07:20:15.744Z,813.92
2017-11-14T07:21:16.348Z,813.91
2017-11-14T07:22:16.955Z,813.93
2017-11-14T07:23:17.553Z,813.95
2017-11-14T07:24:18.160Z,813.95
2017-11-14T07:25:18.766Z,813.99
2017-11-14T07:26:19.405Z,814.04
2017-11-14T07:27:20.037Z,814.05
2017-11-14T07:28:20.670Z,814.04
2017-11-14T07:29:21.281Z,813.99
2017-11-14T07:30:21.896Z,814.02
2017-11-14T07:31:22.488Z,814.02
2017-11-14T07:32:23.088Z,813.99
2017-11-14T07:33:23.725Z,813.99
2017-11-14T07:34:24.322Z,813.98
2017-11-14T07:35:24.935Z,814.00
2017-11-14T07:36:25.535Z,814.06
2017-11-14T07:37:26.139Z,814.02
2017-11-14T07:38:26.737Z,814.00
2017-11-14T07:39:27.347Z,814.02
2017-11-14T07:40:27.943Z,814.05
2017-11-14T07:41:28.552Z,814.05
2017-11-14T07:42:29.150Z,814.08
2017-11-14T07:43:29.754Z,814.09
2017-11-14T07:44:30.356Z,814.13
2017-11-14T07:45:30.988Z,814.14
2017-11-14T07:46:31.595Z,814.13
2017-11-14T07:47:32.193Z,814.07
2017-11-14T07:48:32.797Z,814.07
2017-11-14T07:49:33.399Z,814.09
2017-11-14T07:50:33.999Z,814.11
2017-11-14T07:51:34.601Z,814.15
2017-11-14T07:52:35.205Z,814.14
2017-11-14T07:53:35.806Z,814.14
2017-11-14T07:54:36.437Z,814.11
2017-11-14T07:55:37.038Z,814.08
2017-11-14T07:56:37.646Z,814.10
2017-11-14T07:57:38.247Z,814.11
2017-11-14T07:58:38.849Z,814.08
2017-11-14T07:59:39.452Z,814.14
2017-11-14T08:00:40.056Z,814.16
2017-11-14T08:01:40.659Z,814.14
2017-11-14T08:02:41.264Z,814.12
2017-11-14T08:03:41.898Z,814.12
2017-11-14T08:04:42.503Z,814.16
2017-11-14T08:05:43.105Z,814.12
2017-11-14T08:06:43.714Z,814.11
2017-11-14T08:07:44.314Z,814.10
2017-11-14T08:08:44.920Z,814.16
2017-11-14T08:09:45.530Z,814.16
2017-11-14T08:10:46.133Z,814.11
2017-11-14T08:11:46.735Z,814.10
2017-11-14T08:12:47.336Z,814.13
2017-11-14T08:13:47.942Z,814.11
2017-11-14T08:14:48.550Z,814.05
2017-11-14T08:15:49.151Z,814.01
2017-11-14T08:16:49.756Z,814.03
2017-11-14T08:17:50.359Z,814.04
2017-11-14T08:18:50.965Z,814.07
2017-11-14T08:19:51.570Z,814.11
2017-11-14T08:20:52.175Z,814.05
2017-11-14T08:21:52.778Z,814.08
2017-11-14T08:22:53.382Z,814.01
2017-11-14T08:23:53.992Z,814.02
2017-11-14T08:24:54.596Z,814.04
2017-11-14T08:25:55.197Z,814.05
2017-11-14T08:26:55.803Z,813.96
2017-11-14T08:27:56.412Z,813.99
2017-11-14T08:28:57.016Z,814.02
2017-11-14T08:29:57.622Z,813.98
2017-11-14T08:30:58.228Z,814.04
2017-11-14T08:31:58.839Z,814.07
2017-11-14T08:32:59.444Z,814.09
2017-11-14T08:34:00.057Z,814.08
2017-11-14T08:35:00.660Z,814.08
2017-11-14T08:36:01.265Z,814.02
2017-11-14T08:37:01.876Z,813.99
2017-11-14T08:38:02.483Z,813.99
2017-11-14T08:39:03.091Z,814.00
2017-11-14T08:40:03.694Z,814.02
2017-11-14T08:41:04.299Z,814.07
2017-11-14T08:42:04.913Z,814.06
2017-11-14T08:43:05.514Z,814.01
2017-11-14T08:44:06.122Z,814.02
2017-11-14T08:45:06.757Z,813.97
2017-11-14T08:46:07.363Z,814.04
2017-11-14T08:47:07.980Z,814.11
2017-11-14T08:48:08.612Z,814.09
2017-11-14T08:49:09.219Z,814.11
2017-11-14T08:50:09.858Z,814.06
2017-11-14T08:51:10.465Z,814.08
2017-11-14T08:52:11.071Z,814.11
2017-11-14T08:53:11.677Z,814.12
2017-11-14T08:54:12.283Z,814.13
2017-11-14T08:55:12.895Z,814.03
2017-11-14T08:56:13.500Z,814.02
2017-11-14T08:57:14.110Z,814.02
2017-11-14T08:58:14.720Z,814.03
2017-11-14T08:59:15.323Z,814.00
2017-11-14T09:00:15.975Z,814.02
2017-11-14T09:01:16.572Z,814.04
2017-11-14T09:02:17.179Z,814.00
2017-11-14T09:03:17.788Z,814.01
2017-11-14T09:04:18.405Z,814.09
2017-11-14T09:05:19.005Z,814.06
2017-11-14T09:06:19.644Z,814.04
2017-11-14T09:07:20.252Z,814.05
2017-11-14T09:08:20.860Z,814.09
2017-11-14T09:09:21.467Z,814.08
2017-11-14T09:10:22.080Z,814.09
2017-11-14T09:11:22.686Z,814.09
2017-11-14T09:12:23.293Z,814.08
2017-11-14T09:13:23.901Z,814.08
2017-11-14T09:14:24.509Z,814.10
2017-11-14T09:15:25.117Z,814.03
2017-11-14T09:16:25.726Z,814.05
2017-11-14T09:17:26.365Z,814.09
2017-11-14T09:18:26.981Z,814.10
2017-11-14T09:19:27.589Z,814.07
2017-11-14T09:20:28.195Z,814.00
2017-11-14T09:21:28.804Z,813.99
2017-11-14T09:22:29.441Z,814.03
2017-11-14T09:23:30.051Z,814.09
2017-11-14T09:24:30.660Z,814.09
2017-11-14T09:25:31.267Z,814.08
2017-11-14T09:26:31.877Z,814.12
2017-11-14T09:27:32.486Z,814.16
2017-11-14T09:28:33.100Z,814.17
2017-11-14T09:29:33.704Z,814.12
2017-11-14T09:30:34.311Z,814.04
2017-11-14T09:31:34.950Z,814.17
2017-11-14T09:32:35.560Z,814.16
2017-11-14T09:33:36.170Z,814.14
2017-11-14T09:34:36.780Z,814.12
2017-11-14T09:35:37.404Z,814.15
2017-11-14T09:36:38.004Z,814.11
2017-11-14T09:37:38.616Z,814.12
2017-11-14T09:38:39.228Z,814.11
2017-11-14T09:39:39.837Z,814.11
2017-11-14T09:40:40.469Z,814.05
2017-11-14T09:41:41.053Z,814.09
2017-11-14T09:42:41.701Z,814.05
2017-11-14T09:43:42.301Z,814.09
2017-11-14T09:44:42.910Z,814.08
2017-11-14T09:45:43.519Z,814.10
2017-11-14T09:46:44.128Z,814.13
2017-11-14T09:47:44.789Z,814.15
2017-11-14T09:48:45.397Z,814.14
2017-11-14T09:49:46.041Z,814.14
2017-11-14T09:50:46.650Z,814.16
2017-11-14T09:51:47.259Z,814.13
2017-11-14T09:52:47.871Z,814.15
2017-11-14T09:53:48.486Z,814.21
2017-11-14T09:54:49.091Z,814.23
2017-11-14T09:55:49.731Z,814.16
2017-11-14T09:56:50.347Z,814.10
2017-11-14T09:57:50.999Z,814.11
2017-11-14T09:58:51.608Z,814.20
2017-11-14T09:59:52.221Z,814.22
2017-11-14T10:00:52.862Z,814.21
2017-11-14T10:01:53.469Z,814.23
2017-11-14T10:02:54.085Z,814.25
2017-11-14T10:03:54.699Z,814.24
2017-11-14T10:04:55.304Z,814.26
2017-11-14T10:05:55.947Z,814.22
2017-11-14T10:06:56.557Z,814.25
2017-11-14T10:07:57.169Z,814.26
2017-11-14T10:08:57.777Z,814.25
2017-11-14T10:09:58.389Z,814.25
2017-11-14T10:10:59.000Z,814.25
2017-11-14T10:11:59.610Z,814.28
2017-11-14T10:13:00.220Z,814.21
2017-11-14T10:14:00.835Z,814.22
2017-11-14T10:15:01.474Z,814.23
2017-11-14T10:16:02.098Z,814.26
2017-11-14T10:17:02.700Z,814.26
2017-11-14T10:18:03.315Z,814.20
2017-11-14T10:19:03.927Z,814.22
2017-11-14T10:20:04.540Z,814.18
2017-11-14T10:21:05.151Z,814.21
2017-11-14T10:22:05.793Z,814.22
2017-11-14T10:23:06.453Z,814.14
2017-11-14T10:24:07.064Z,814.14
2017-11-14T10:25:07.673Z,814.18
2017-11-14T10:26:08.289Z,814.19
2017-11-14T10:27:08.895Z,814.22
2017-11-14T10:28:09.557Z,814.12
2017-11-14T10:29:10.198Z,814.13
2017-11-14T10:30:10.814Z,814.12
2017-11-14T10:31:11.424Z,814.15
2017-11-14T10:32:12.045Z,814.16
2017-11-14T10:33:12.649Z,814.19
2017-11-14T10:34:13.261Z,814.17
2017-11-14T10:35:13.872Z,814.17
2017-11-14T10:36:14.494Z,814.15
2017-11-14T10:37:15.138Z,814.18
2017-11-14T10:38:15.782Z,814.20
2017-11-14T10:39:16.394Z,814.17
2017-11-14T10:40:17.005Z,814.15
2017-11-14T10:41:17.623Z,814.15
2017-11-14T10:42:18.228Z,814.14
2017-11-14T10:43:18.842Z,814.08
2017-11-14T10:44:19.455Z,814.10
2017-11-14T10:45:20.066Z,814.14
2017-11-14T10:46:20.682Z,814.22
2017-11-14T10:47:21.293Z,814.20
2017-11-14T10:48:21.905Z,814.21
2017-11-14T10:49:22.518Z,814.18
2017-11-14T10:50:23.132Z,814.14
2017-11-14T10:51:23.742Z,814.15
2017-11-14T10:52:24.363Z,814.18
2017-11-14T10:53:24.967Z,814.13
2017-11-14T10:54:25.580Z,814.11
2017-11-14T10:55:26.192Z,814.17
2017-11-14T10:56:26.808Z,814.13
2017-11-14T10:57:27.419Z,814.14
2017-11-14T10:58:28.032Z,814.11
2017-11-14T10:59:28.644Z,814.17
2017-11-14T11:00:29.256Z,814.20
2017-11-14T11:01:29.869Z,814.16
2017-11-14T11:02:30.483Z,814.18
2017-11-14T11:03:31.102Z,814.14
2017-11-14T11:04:31.710Z,814.14
2017-11-14T11:05:32.326Z,814.21
2017-11-14T11:06:32.942Z,814.24
2017-11-14T11:07:33.589Z,814.27
2017-11-14T11:08:34.200Z,814.23
2017-11-14T11:09:34.815Z,814.21
2017-11-14T11:10:35.427Z,814.20
2017-11-14T11:11:36.042Z,814.23
2017-11-14T11:12:36.661Z,814.21
2017-11-14T11:13:37.272Z,814.18
2017-11-14T11:14:37.884Z,814.18
2017-11-14T11:15:38.502Z,814.21
2017-11-14T11:16:39.114Z,814.21
2017-11-14T11:17:39.728Z,814.25
2017-11-14T11:18:40.340Z,814.21
2017-11-14T11:19:40.954Z,814.23
2017-11-14T11:20:41.566Z,814.26
2017-11-14T11:21:42.216Z,814.27
2017-11-14T11:22:42.830Z,814.31
2017-11-14T11:23:43.441Z,814.29
2017-11-14T11:24:44.055Z,814.30
2017-11-14T11:25:44.675Z,814.30
2017-11-14T11:26:45.284Z,814.37
2017-11-14T11:27:45.898Z,814.34
2017-11-14T11:28:46.518Z,814.35
2017-11-14T11:29:47.131Z,814.33
2017-11-14T11:30:47.746Z,814.36
2017-11-14T11:31:48.391Z,814.38
2017-11-14T11:32:49.004Z,814.43
2017-11-14T11:33:49.621Z,814.44
2017-11-14T11:34:50.235Z,814.44
2017-11-14T11:35:50.849Z,814.45
2017-11-14T11:36:51.462Z,814.48
2017-11-14T11:37:52.077Z,814.46
2017-11-14T11:38:52.691Z,814.50
2017-11-14T11:39:53.305Z,814.45
2017-11-14T11:40:53.920Z,814.44
2017-11-14T11:41:54.539Z,814.48
2017-11-14T11:42:55.152Z,814.50
2017-11-14T11:43:55.804Z,814.49
2017-11-14T11:44:56.448Z,814.52
2017-11-14T11:45:57.069Z,814.54
2017-11-14T11:46:57.684Z,814.59
2017-11-14T11:47:58.296Z,814.65
2017-11-14T11:48:58.909Z,814.63
2017-11-14T11:49:59.554Z,814.69
2017-11-14T11:51:00.170Z,814.67
2017-11-14T11:52:00.790Z,814.68
2017-11-14T11:53:01.408Z,814.69
2017-11-14T11:54:02.017Z,814.71
2017-11-14T11:55:02.633Z,814.67
2017-11-14T11:56:03.248Z,814.69
2017-11-14T11:57:03.862Z,814.70
2017-11-14T11:58:04.477Z,814.69
2017-11-14T11:59:05.092Z,814.71
2017-11-14T12:00:05.712Z,814.71
2017-11-14T12:01:06.326Z,814.69
2017-11-14T12:02:06.972Z,814.73
2017-11-14T12:03:07.591Z,814.75
2017-11-14T12:04:08.203Z,814.74
2017-11-14T12:05:08.851Z,814.75
2017-11-14T12:06:09.471Z,814.73
2017-11-14T12:07:10.118Z,814.75
2017-11-14T12:08:10.730Z,814.80
2017-11-14T12:09:11.344Z,814.79
2017-11-14T12:10:11.961Z,814.80
2017-11-14T12:11:12.580Z,814.83
2017-11-14T12:12:13.189Z,814.80
2017-11-14T12:13:13.807Z,814.78
2017-11-14T12:14:14.421Z,814.82
2017-11-14T12:15:15.068Z,814.82
2017-11-14T12:16:15.685Z,814.82
2017-11-14T12:17:16.301Z,814.84
2017-11-14T12:18:16.915Z,814.87
2017-11-14T12:19:17.533Z,814.88
2017-11-14T12:20:18.147Z,814.89
2017-11-14T12:21:18.775Z,814.94
2017-11-14T12:22:19.380Z,814.88
2017-11-14T12:23:20.000Z,814.86
2017-11-14T12:24:20.651Z,814.91
2017-11-14T12:25:21.300Z,814.92
2017-11-14T12:26:21.918Z,814.96
2017-11-14T12:27:22.533Z,814.93
2017-11-14T12:28:23.178Z,814.97
2017-11-14T12:29:23.822Z,814.92
2017-11-14T12:30:24.440Z,814.92
2017-11-14T12:31:25.053Z,814.97
2017-11-14T12:32:25.667Z,814.91
2017-11-14T12:33:26.284Z,814.90
2017-11-14T12:34:26.904Z,814.96
2017-11-14T12:35:27.517Z,814.97
2017-11-14T12:36:28.133Z,814.97
2017-11-14T12:37:28.754Z,814.94
2017-11-14T12:38:29.368Z,814.94
2017-11-14T12:39:29.983Z,814.91
2017-11-14T12:40:30.598Z,814.94
2017-11-14T12:41:31.218Z,814.92
2017-11-14T12:42:31.839Z,814.87
2017-11-14T12:43:32.452Z,814.87
2017-11-14T12:44:33.068Z,814.90
2017-11-14T12:45:33.683Z,814.89
2017-11-14T12:46:34.303Z,814.92
2017-11-14T12:47:34.927Z,814.85
2017-11-14T12:48:35.573Z,814.86
2017-11-14T12:49:36.191Z,814.88
2017-11-14T12:50:36.807Z,814.88
2017-11-14T12:51:37.429Z,814.84
2017-11-14T12:52:38.054Z,814.85
2017-11-14T12:53:38.666Z,814.81
2017-11-14T12:54:39.288Z,814.81
2017-11-14T12:55:39.906Z,814.83
2017-11-14T12:56:40.536Z,814.80
2017-11-14T12:57:41.151Z,814.82
2017-11-14T12:58:41.818Z,814.81
2017-11-14T12:59:42.418Z,814.82
2017-11-14T13:00:43.039Z,814.82
2017-11-14T13:01:43.656Z,814.82
2017-11-14T13:02:44.275Z,814.82
2017-11-14T13:03:44.893Z,814.83
2017-11-14T13:04:45.510Z,814.84
2017-11-14T13:05:46.142Z,814.85
2017-11-14T13:06:46.745Z,814.86
2017-11-14T13:07:47.363Z,814.85
2017-11-14T13:08:47.980Z,814.86
2017-11-14T13:09:48.598Z,814.90
2017-11-14T13:10:49.217Z,814.94
2017-11-14T13:11:49.834Z,814.91
2017-11-14T13:12:50.486Z,814.92
2017-11-14T13:13:51.100Z,814.96
2017-11-14T13:14:51.719Z,815.00
2017-11-14T13:15:52.336Z,814.98
2017-11-14T13:16:52.984Z,814.97
2017-11-14T13:17:53.633Z,814.99
2017-11-14T13:18:54.253Z,814.99
2017-11-14T13:19:54.876Z,814.99
2017-11-14T13:20:55.497Z,814.99
2017-11-14T13:21:56.145Z,814.99
2017-11-14T13:22:56.767Z,814.98
2017-11-14T13:23:57.384Z,814.92
2017-11-14T13:24:58.009Z,814.95
2017-11-14T13:25:58.657Z,815.00
2017-11-14T13:26:59.281Z,814.98
2017-11-14T13:27:59.894Z,814.98
2017-11-14T13:29:00.550Z,815.01
2017-11-14T13:30:01.168Z,815.00
2017-11-14T13:31:01.795Z,815.03
2017-11-14T13:32:02.416Z,815.02
2017-11-14T13:33:03.039Z,815.02
2017-11-14T13:34:03.653Z,815.04
2017-11-14T13:35:04.275Z,815.02
2017-11-14T13:36:04.898Z,815.06
2017-11-14T13:37:05.521Z,815.09